Time;durP1;ratioP1;P1;durP2;ratioP2;P2;SDS_P1;SDS_P2;PMS_P1;PMS_P2;Temp;Humidity;BMP_temperature;BMP_pressure;BME280_temperature;BME280_humidity;BME280_pressure;Samples;Min_cycle;Max_cycle;Signal;HPM_P1;HPM_P2
2023/10/30 00:01:51;;;;;;;5.23;3.97;;;14.60;39.40;;;;;;10392231;28;20238;-69
2023/10/30 00:06:56;;;;;;;5.27;3.97;;;14.60;39.20;;;;;;10390730;28;20308;-69
2023/10/30 00:12:00;;;;;;;4.30;3.90;;;14.60;39.40;;;;;;10391644;28;20237;-69
2023/10/30 00:17:04;;;;;;;4.20;3.80;;;14.50;38.90;;;;;;10388439;28;20225;-69
2023/10/30 00:22:11;;;;;;;3.53;3.23;;;14.40;39.10;;;;;;10393326;28;20237;-70
2023/10/30 00:27:16;;;;;;;3.70;3.40;;;14.30;39.40;;;;;;10386742;28;20230;-70
2023/10/30 00:32:19;;;;;;;3.43;3.13;;;14.20;39.10;;;;;;10390765;28;20226;-70
2023/10/30 00:37:23;;;;;;;3.40;3.10;;;14.10;39.20;;;;;;10391975;28;20233;-69
2023/10/30 00:42:28;;;;;;;3.77;3.47;;;14.00;39.70;;;;;;10395327;28;20226;-70
2023/10/30 00:47:34;;;;;;;4.13;3.73;;;14.00;39.50;;;;;;10387178;28;20233;-70
2023/10/30 00:52:39;;;;;;;4.10;3.80;;;14.00;39.50;;;;;;10392157;28;20256;-70
2023/10/30 00:57:42;;;;;;;4.27;3.87;;;14.00;39.60;;;;;;10392197;28;20358;-70
2023/10/30 01:02:45;;;;;;;4.30;3.90;;;14.10;39.40;;;;;;10392892;28;20316;-70
2023/10/30 01:07:50;;;;;;;3.30;3.10;;;14.00;39.10;;;;;;10394766;28;20233;-70
2023/10/30 01:12:53;;;;;;;3.97;3.40;;;14.00;39.30;;;;;;10386998;28;20233;-70
2023/10/30 01:17:56;;;;;;;4.33;3.80;;;14.00;39.00;;;;;;10389165;28;20268;-70
2023/10/30 01:23:01;;;;;;;5.27;3.83;;;13.90;39.10;;;;;;10388860;28;20222;-70
2023/10/30 01:28:05;;;;;;;3.77;3.47;;;13.90;39.30;;;;;;10393896;28;20226;-70
2023/10/30 01:33:08;;;;;;;4.33;3.60;;;13.80;39.10;;;;;;10392313;28;20225;-70
2023/10/30 01:38:12;;;;;;;3.80;3.50;;;13.70;39.00;;;;;;10389849;28;20296;-70
2023/10/30 01:43:17;;;;;;;4.03;3.50;;;13.70;39.40;;;;;;10384374;28;20239;-70
2023/10/30 01:48:20;;;;;;;3.60;3.30;;;13.60;39.10;;;;;;10384976;28;20226;-70
2023/10/30 01:53:25;;;;;;;4.07;3.40;;;13.60;39.10;;;;;;10401103;28;20229;-70
2023/10/30 01:58:30;;;;;;;3.23;2.93;;;13.60;39.10;;;;;;10398412;28;20225;-70
2023/10/30 02:03:34;;;;;;;3.37;3.13;;;13.50;39.10;;;;;;10394975;28;20257;-70
2023/10/30 02:08:39;;;;;;;5.07;3.43;;;13.40;39.40;;;;;;10398407;28;20305;-70
2023/10/30 02:13:42;;;;;;;3.87;3.30;;;13.30;39.30;;;;;;10396755;28;20249;-70
2023/10/30 02:18:46;;;;;;;3.23;2.93;;;13.30;38.80;;;;;;10399672;28;20228;-69
2023/10/30 02:23:50;;;;;;;3.43;3.13;;;13.20;39.00;;;;;;10392220;28;20217;-70
2023/10/30 02:28:57;;;;;;;3.17;2.90;;;13.10;39.30;;;;;;10390145;28;20854;-70
2023/10/30 02:34:00;;;;;;;3.13;2.90;;;13.10;39.30;;;;;;10397454;28;20745;-70
2023/10/30 02:39:04;;;;;;;3.37;2.90;;;13.10;39.30;;;;;;10394351;28;20290;-70
2023/10/30 02:44:09;;;;;;;3.33;3.13;;;13.10;39.20;;;;;;10396874;28;20222;-70
2023/10/30 02:49:12;;;;;;;14.50;3.60;;;13.10;39.10;;;;;;10400680;28;20240;-70
2023/10/30 02:54:16;;;;;;;3.97;3.57;;;13.00;39.00;;;;;;10400492;28;20234;-70
2023/10/30 02:59:20;;;;;;;4.23;3.93;;;12.90;39.10;;;;;;10400248;28;20234;-70
2023/10/30 03:04:24;;;;;;;4.23;3.83;;;12.80;39.40;;;;;;10390515;28;20240;-70
2023/10/30 03:09:27;;;;;;;4.77;4.00;;;12.80;39.30;;;;;;10395456;28;20237;-70
2023/10/30 03:14:33;;;;;;;4.60;4.20;;;12.80;39.00;;;;;;10393500;28;20331;-70
2023/10/30 03:19:36;;;;;;;3.83;3.43;;;12.60;39.30;;;;;;10396291;28;20223;-70
2023/10/30 03:24:39;;;;;;;3.80;3.50;;;12.60;39.40;;;;;;10391417;28;20233;-70
2023/10/30 03:29:44;;;;;;;3.53;3.23;;;12.50;39.50;;;;;;10399411;28;20236;-70
2023/10/30 03:34:47;;;;;;;3.70;3.40;;;12.50;39.50;;;;;;10401120;28;20217;-69
2023/10/30 03:39:50;;;;;;;4.10;3.80;;;12.50;39.20;;;;;;10396004;28;20213;-70
2023/10/30 03:44:55;;;;;;;4.03;3.07;;;12.50;39.40;;;;;;10395975;28;20308;-70
2023/10/30 03:49:58;;;;;;;3.30;3.00;;;12.50;39.70;;;;;;10388971;28;20222;-70
2023/10/30 03:55:03;;;;;;;3.27;2.90;;;12.40;39.40;;;;;;10397061;28;20644;-71
2023/10/30 04:00:10;;;;;;;3.53;3.30;;;12.30;39.50;;;;;;10394995;28;21251;-70
2023/10/30 04:05:13;;;;;;;4.13;3.40;;;12.30;40.00;;;;;;10397368;28;20324;-70
2023/10/30 04:10:16;;;;;;;3.00;2.80;;;12.30;39.60;;;;;;10394188;28;20257;-70
2023/10/30 04:15:21;;;;;;;4.00;3.47;;;12.20;39.60;;;;;;10388549;28;20240;-70
2023/10/30 04:20:25;;;;;;;3.30;3.00;;;12.10;39.80;;;;;;10392868;28;20234;-70
2023/10/30 04:25:28;;;;;;;3.10;2.80;;;12.00;39.40;;;;;;10393705;28;20236;-70
2023/10/30 04:30:35;;;;;;;2.97;2.77;;;11.90;39.60;;;;;;10392720;28;20325;-70
2023/10/30 04:35:38;;;;;;;3.47;3.03;;;11.80;39.90;;;;;;10390960;28;20300;-70
2023/10/30 04:40:42;;;;;;;3.17;2.97;;;11.70;39.70;;;;;;10388497;28;20229;-70
2023/10/30 04:45:46;;;;;;;3.07;2.77;;;11.70;39.90;;;;;;10390186;28;20228;-70
2023/10/30 04:50:50;;;;;;;5.03;3.27;;;11.70;40.20;;;;;;10380428;28;20253;-70
2023/10/30 04:55:53;;;;;;;2.73;2.53;;;11.60;40.00;;;;;;10390074;28;20227;-70
2023/10/30 05:00:57;;;;;;;4.80;4.40;;;11.70;40.10;;;;;;10395660;28;20713;-70
2023/10/30 05:06:02;;;;;;;5.30;4.63;;;11.60;40.00;;;;;;10390652;28;20858;-70
2023/10/30 05:11:06;;;;;;;4.37;3.97;;;11.60;40.20;;;;;;10390008;28;20811;-70
2023/10/30 05:16:10;;;;;;;3.83;3.53;;;11.50;40.00;;;;;;10380852;28;20230;-70
2023/10/30 05:21:13;;;;;;;5.00;4.60;;;11.50;40.50;;;;;;10392363;28;20226;-70
2023/10/30 05:26:17;;;;;;;4.97;4.57;;;11.40;40.20;;;;;;10391557;28;20706;-70
2023/10/30 05:31:22;;;;;;;7.87;3.93;;;11.50;40.30;;;;;;10384618;28;20598;-70
2023/10/30 05:36:25;;;;;;;4.80;4.50;;;11.50;40.40;;;;;;10397569;28;20225;-70
2023/10/30 05:41:28;;;;;;;7.17;6.57;;;11.50;40.10;;;;;;10389064;28;20577;-70
2023/10/30 05:46:33;;;;;;;9.10;8.20;;;11.60;40.10;;;;;;10389428;28;20338;-70
2023/10/30 05:51:36;;;;;;;8.23;7.43;;;11.50;40.00;;;;;;10387018;28;20308;-70
2023/10/30 05:56:40;;;;;;;8.10;7.30;;;11.50;39.90;;;;;;10387882;28;20226;-70
2023/10/30 06:01:44;;;;;;;5.70;5.20;;;11.30;39.90;;;;;;10398520;28;20229;-70
2023/10/30 06:06:48;;;;;;;4.60;4.20;;;11.20;40.30;;;;;;10386334;28;20273;-70
2023/10/30 06:11:51;;;;;;;6.37;5.87;;;11.10;40.30;;;;;;10386986;28;20234;-70
2023/10/30 06:16:58;;;;;;;6.17;5.50;;;11.00;40.80;;;;;;10385908;28;20933;-70
2023/10/30 06:22:01;;;;;;;10.33;9.50;;;11.00;40.80;;;;;;10393498;28;20233;-69
2023/10/30 06:27:04;;;;;;;8.20;7.50;;;11.00;40.80;;;;;;10388680;28;20897;-70
2023/10/30 06:32:09;;;;;;;5.60;5.10;;;11.00;40.80;;;;;;10385528;28;20709;-70
2023/10/30 06:37:14;;;;;;;4.67;4.33;;;11.00;40.80;;;;;;10391880;28;20721;-70
2023/10/30 06:42:17;;;;;;;5.07;4.37;;;11.00;40.80;;;;;;10395948;28;20227;-70
2023/10/30 06:47:22;;;;;;;13.63;12.17;;;11.00;40.80;;;;;;10399214;28;20291;-70
2023/10/30 06:52:25;;;;;;;12.70;10.00;;;11.00;40.80;;;;;;10391477;28;20245;-70
2023/10/30 06:57:28;;;;;;;8.40;7.60;;;11.00;40.80;;;;;;10394740;28;20275;-70
2023/10/30 07:02:34;;;;;;;10.03;6.73;;;11.00;40.80;;;;;;10393959;28;20234;-70
2023/10/30 07:07:37;;;;;;;7.97;6.00;;;11.10;40.90;;;;;;10400097;28;20229;-70
2023/10/30 07:12:40;;;;;;;8.13;5.57;;;11.10;40.90;;;;;;10404464;28;20236;-70
2023/10/30 07:17:45;;;;;;;6.20;4.93;;;11.20;41.00;;;;;;10395867;28;20252;-70
2023/10/30 07:22:48;;;;;;;7.03;4.83;;;11.30;41.40;;;;;;10389484;28;20230;-70
2023/10/30 07:27:52;;;;;;;4.70;4.30;;;11.40;41.20;;;;;;10393725;28;20233;-69
2023/10/30 07:32:56;;;;;;;5.97;4.80;;;11.50;41.30;;;;;;10392738;28;20218;-70
2023/10/30 07:38:00;;;;;;;5.60;5.10;;;11.70;42.10;;;;;;10395973;28;20258;-70
2023/10/30 07:43:03;;;;;;;5.10;4.70;;;11.80;41.90;;;;;;10401842;28;20235;-70
2023/10/30 07:48:08;;;;;;;5.70;4.20;;;12.00;42.20;;;;;;10398331;28;20605;-70
2023/10/30 07:53:11;;;;;;;4.77;4.20;;;12.20;42.90;;;;;;10392358;28;20735;-69
2023/10/30 07:58:14;;;;;;;4.33;3.93;;;12.40;42.90;;;;;;10396963;28;20233;-69
2023/10/30 08:03:19;;;;;;;4.80;4.00;;;12.60;43.30;;;;;;10389782;28;20225;-69
2023/10/30 08:08:23;;;;;;;4.40;4.07;;;12.90;43.90;;;;;;10393412;28;20291;-69
2023/10/30 08:13:26;;;;;;;3.70;3.40;;;13.20;43.80;;;;;;10393777;28;20225;-69
2023/10/30 08:18:30;;;;;;;3.90;3.60;;;13.40;43.90;;;;;;10388307;28;20226;-68
2023/10/30 08:23:34;;;;;;;3.80;3.50;;;13.70;44.10;;;;;;10391269;28;20292;-69
2023/10/30 08:28:37;;;;;;;3.30;3.00;;;14.00;43.40;;;;;;10393907;28;20222;-69
2023/10/30 08:33:42;;;;;;;3.77;3.47;;;14.30;43.70;;;;;;10396017;28;20240;-68
2023/10/30 08:38:45;;;;;;;3.87;3.57;;;14.60;44.00;;;;;;10394641;28;20218;-69
2023/10/30 08:43:48;;;;;;;3.57;3.27;;;14.80;44.20;;;;;;10391859;28;20324;-69
2023/10/30 08:48:57;;;;;;;4.27;3.30;;;15.10;44.30;;;;;;10392987;28;20228;-69
2023/10/30 08:54:01;;;;;;;3.47;3.17;;;15.20;44.50;;;;;;10394890;28;20232;-69
2023/10/30 08:59:04;;;;;;;4.90;3.20;;;15.50;44.00;;;;;;10387224;28;20226;-69
2023/10/30 09:04:10;;;;;;;2.93;2.70;;;15.70;44.00;;;;;;10389574;28;20233;-69
2023/10/30 09:09:13;;;;;;;3.60;3.30;;;15.90;44.20;;;;;;10390405;28;20234;-69
2023/10/30 09:14:16;;;;;;;2.93;2.73;;;16.10;43.60;;;;;;10389446;28;20237;-69
2023/10/30 09:19:22;;;;;;;3.33;3.00;;;16.30;43.60;;;;;;10383229;28;20637;-69
2023/10/30 09:24:26;;;;;;;4.43;2.97;;;16.50;43.60;;;;;;10380668;28;20929;-69
2023/10/30 09:29:30;;;;;;;3.30;3.00;;;16.70;44.10;;;;;;10387239;28;20233;-69
2023/10/30 09:34:34;;;;;;;3.03;2.73;;;16.90;43.20;;;;;;10388579;28;20601;-69
2023/10/30 09:39:38;;;;;;;3.23;2.50;;;17.00;43.00;;;;;;10394193;28;20700;-69
2023/10/30 09:44:42;;;;;;;2.50;2.30;;;17.20;42.90;;;;;;10391111;28;20304;-69
2023/10/30 09:49:49;;;;;;;2.53;2.30;;;17.30;42.90;;;;;;10392738;28;20257;-69
2023/10/30 09:54:53;;;;;;;2.40;2.30;;;17.50;42.50;;;;;;10385895;28;20791;-69
2023/10/30 09:59:58;;;;;;;2.33;1.90;;;17.60;42.60;;;;;;10393810;28;20233;-69
2023/10/30 10:05:02;;;;;;;1.53;1.43;;;17.80;42.60;;;;;;10391644;28;20707;-69
2023/10/30 10:10:08;;;;;;;1.67;1.57;;;18.00;41.70;;;;;;10389714;28;20226;-69
2023/10/30 10:15:12;;;;;;;1.40;1.30;;;18.10;41.40;;;;;;10398497;28;20765;-69
2023/10/30 10:20:17;;;;;;;1.77;1.37;;;18.20;41.40;;;;;;10400002;28;20962;-69
2023/10/30 10:25:21;;;;;;;1.20;1.10;;;18.40;41.10;;;;;;10396196;28;20255;-69
2023/10/30 10:30:25;;;;;;;2.07;1.30;;;18.50;41.30;;;;;;10392453;28;20238;-69
2023/10/30 10:35:31;;;;;;;1.23;1.13;;;18.60;40.90;;;;;;10403729;28;20275;-69
2023/10/30 10:40:35;;;;;;;1.43;1.33;;;18.70;40.60;;;;;;10398448;28;20225;-69
2023/10/30 10:45:39;;;;;;;2.97;1.33;;;18.70;40.70;;;;;;10401427;28;20860;-69
2023/10/30 10:50:45;;;;;;;1.60;1.50;;;18.80;40.30;;;;;;10399858;28;20268;-69
2023/10/30 10:55:49;;;;;;;1.87;1.40;;;18.80;40.00;;;;;;10390721;28;20309;-69
2023/10/30 11:00:54;;;;;;;3.33;1.50;;;18.80;40.10;;;;;;10382526;28;20231;-69
2023/10/30 11:05:59;;;;;;;1.83;1.67;;;18.90;40.00;;;;;;10394917;28;21006;-69
2023/10/30 11:11:12;;;;;;;2.17;1.40;;;18.90;39.60;;;;;;10394245;28;20890;-70
2023/10/30 11:16:21;;;;;;;1.83;1.43;;;18.90;39.20;;;;;;10393139;28;20230;-69
2023/10/30 11:21:27;;;;;;;1.70;1.60;;;19.00;39.30;;;;;;10385899;28;20324;-69
2023/10/30 11:26:39;;;;;;;2.00;1.80;;;19.00;39.30;;;;;;10400968;28;20225;-69
2023/10/30 11:32:10;;;;;;;1.60;1.40;;;19.00;39.00;;;;;;10385723;28;20790;-69
2023/10/30 11:37:16;;;;;;;1.63;1.53;;;19.00;39.00;;;;;;10363726;28;20249;-70
2023/10/30 11:42:29;;;;;;;2.00;1.80;;;19.10;39.30;;;;;;10397960;28;20592;-69
2023/10/30 11:47:34;;;;;;;1.60;1.50;;;19.10;38.80;;;;;;10389255;28;20252;-69
2023/10/30 11:52:40;;;;;;;1.70;1.60;;;19.10;39.20;;;;;;10389342;28;20312;-69
2023/10/30 11:57:43;;;;;;;4.60;1.90;;;19.10;39.00;;;;;;10390454;28;20309;-69
2023/10/30 12:02:47;;;;;;;2.17;1.97;;;19.10;39.10;;;;;;10392690;28;20234;-69
2023/10/30 12:07:52;;;;;;;2.80;2.60;;;19.10;39.00;;;;;;10390803;28;20895;-69
2023/10/30 12:12:55;;;;;;;3.20;2.70;;;19.10;38.60;;;;;;10387969;28;20732;-69
2023/10/30 12:17:59;;;;;;;2.70;2.50;;;19.10;38.80;;;;;;10397250;28;20249;-69
2023/10/30 12:23:03;;;;;;;3.30;2.97;;;19.10;39.00;;;;;;10388783;28;20774;-70
2023/10/30 12:28:06;;;;;;;3.43;3.10;;;19.00;38.60;;;;;;10393887;28;20226;-70
2023/10/30 12:33:13;;;;;;;2.90;2.70;;;19.00;39.00;;;;;;10345297;28;1288703;-69
2023/10/30 12:38:18;;;;;;;2.30;2.10;;;19.00;39.00;;;;;;10393684;28;20226;-69
2023/10/30 12:43:21;;;;;;;2.50;2.30;;;19.10;39.00;;;;;;10393924;28;20233;-69
2023/10/30 12:48:24;;;;;;;2.63;2.43;;;19.10;39.10;;;;;;10384154;28;20233;-69
2023/10/30 12:53:30;;;;;;;2.47;2.27;;;19.10;39.20;;;;;;10389365;28;20326;-69
2023/10/30 12:58:33;;;;;;;2.80;2.30;;;19.10;38.90;;;;;;10388244;28;20232;-69
2023/10/30 13:03:36;;;;;;;2.53;2.30;;;19.10;39.00;;;;;;10392072;28;20343;-69
2023/10/30 13:08:41;;;;;;;2.53;2.33;;;19.10;38.80;;;;;;10397761;28;20715;-69
2023/10/30 13:13:44;;;;;;;4.03;2.23;;;19.10;38.90;;;;;;10393730;28;20226;-69
2023/10/30 13:18:47;;;;;;;3.20;2.43;;;19.00;38.80;;;;;;10391035;28;20232;-69
2023/10/30 13:23:52;;;;;;;2.73;2.53;;;19.00;38.80;;;;;;10386339;28;20226;-69
2023/10/30 13:28:55;;;;;;;3.13;2.83;;;19.00;38.80;;;;;;10393409;28;20226;-69
2023/10/30 13:33:58;;;;;;;2.87;2.47;;;19.00;39.00;;;;;;10396439;28;20309;-69
2023/10/30 13:39:03;;;;;;;3.13;2.40;;;18.90;38.90;;;;;;10383076;28;20229;-72
2023/10/30 13:44:06;;;;;;;2.37;2.27;;;18.90;38.90;;;;;;10388185;28;20230;-70
2023/10/30 13:49:10;;;;;;;3.20;2.50;;;19.00;39.00;;;;;;10384642;28;20230;-69
2023/10/30 13:54:14;;;;;;;2.57;2.37;;;18.90;39.00;;;;;;10389271;28;20597;-74
2023/10/30 13:59:17;;;;;;;2.50;2.33;;;18.90;39.10;;;;;;10387181;28;20237;-74
2023/10/30 14:04:21;;;;;;;3.40;3.10;;;18.80;39.10;;;;;;10390537;28;20229;-75
2023/10/30 14:09:25;;;;;;;4.13;3.83;;;18.80;39.10;;;;;;10393365;28;20600;-70
2023/10/30 14:14:28;;;;;;;4.23;3.83;;;18.80;39.00;;;;;;10392705;28;20316;-69
2023/10/30 14:19:32;;;;;;;3.40;3.10;;;18.70;39.10;;;;;;10390935;28;20230;-70
2023/10/30 14:24:36;;;;;;;3.00;2.80;;;18.60;39.00;;;;;;10389789;28;20233;-71
2023/10/30 14:29:39;;;;;;;3.50;3.20;;;18.50;39.10;;;;;;10391266;28;20233;-72
2023/10/30 14:34:43;;;;;;;4.53;4.13;;;18.50;39.10;;;;;;10392548;28;20225;-71
2023/10/30 14:39:47;;;;;;;15.00;13.10;;;18.40;39.20;;;;;;10384940;28;20978;-71
2023/10/30 14:44:51;;;;;;;8.03;5.87;;;18.40;39.20;;;;;;10388031;28;20236;-71
2023/10/30 14:49:55;;;;;;;5.90;5.30;;;18.30;39.50;;;;;;10383934;28;20272;-71
2023/10/30 14:55:00;;;;;;;7.23;4.60;;;18.20;39.30;;;;;;10385876;28;20796;-72
2023/10/30 15:00:06;;;;;;;4.43;4.03;;;18.10;39.30;;;;;;10394976;28;20221;-72
2023/10/30 15:05:10;;;;;;;4.50;4.10;;;18.00;39.40;;;;;;10397307;28;20700;-71
2023/10/30 15:10:17;;;;;;;4.97;3.90;;;17.90;39.50;;;;;;10396241;28;20229;-71
2023/10/30 15:15:20;;;;;;;4.17;3.83;;;17.80;39.90;;;;;;10394244;28;20225;-72
2023/10/30 15:20:23;;;;;;;4.87;4.37;;;17.80;40.20;;;;;;10395628;28;22304;-72
2023/10/30 15:25:28;;;;;;;4.40;3.97;;;17.80;40.20;;;;;;10396811;28;20260;-74
2023/10/30 15:30:31;;;;;;;4.50;4.10;;;17.70;40.50;;;;;;10393713;28;20225;-74
2023/10/30 15:35:34;;;;;;;4.80;4.20;;;17.80;40.50;;;;;;10398819;28;20635;-74
2023/10/30 15:40:39;;;;;;;4.40;4.00;;;17.80;40.50;;;;;;10395455;28;20708;-70
2023/10/30 15:45:43;;;;;;;4.97;4.13;;;17.80;40.60;;;;;;10399106;28;20696;-70
2023/10/30 15:50:47;;;;;;;5.30;4.90;;;17.80;40.50;;;;;;10395718;28;20237;-70
2023/10/30 15:55:51;;;;;;;4.50;4.10;;;17.80;40.40;;;;;;10389381;28;20641;-71
2023/10/30 16:01:00;;;;;;;5.30;4.80;;;17.80;40.60;;;;;;10393782;28;20224;-71
2023/10/30 16:06:03;;;;;;;5.07;4.67;;;17.80;40.50;;;;;;10395152;28;20218;-70
2023/10/30 16:11:10;;;;;;;4.63;4.27;;;17.80;40.40;;;;;;10396033;28;20299;-72
2023/10/30 16:16:32;;;;;;;4.83;4.43;;;17.80;40.60;;;;;;10391479;28;20317;-71
2023/10/30 16:21:35;;;;;;;8.17;5.40;;;17.80;40.50;;;;;;10393282;28;20230;-71
2023/10/30 16:26:40;;;;;;;4.93;4.50;;;17.80;40.70;;;;;;10394628;28;20225;-72
2023/10/30 16:31:43;;;;;;;4.47;4.10;;;17.70;40.70;;;;;;10392072;28;20238;-75
2023/10/30 16:36:46;;;;;;;6.80;4.57;;;17.70;40.60;;;;;;10388129;28;20230;-75
2023/10/30 16:41:51;;;;;;;5.03;4.53;;;17.70;40.70;;;;;;10390837;28;20230;-70
2023/10/30 16:46:54;;;;;;;31.63;23.57;;;17.70;40.90;;;;;;10395525;28;20240;-70
2023/10/30 16:51:57;;;;;;;10.23;9.23;;;17.70;40.70;;;;;;10389328;28;20929;-74
2023/10/30 16:57:02;;;;;;;7.70;6.97;;;17.70;40.80;;;;;;10388811;28;20368;-75
2023/10/30 17:02:06;;;;;;;6.10;5.57;;;17.70;41.10;;;;;;10393846;28;20240;-74
2023/10/30 17:07:12;;;;;;;6.30;5.80;;;17.60;40.90;;;;;;10391184;28;20304;-74
2023/10/30 17:12:17;;;;;;;4.73;4.33;;;17.60;41.20;;;;;;10392901;28;20930;-75
2023/10/30 17:17:20;;;;;;;5.30;4.90;;;17.60;41.40;;;;;;10391529;28;20221;-75
2023/10/30 17:22:24;;;;;;;5.63;5.17;;;17.60;41.40;;;;;;10391591;28;20230;-70
2023/10/30 17:27:28;;;;;;;8.63;7.73;;;17.60;41.30;;;;;;10390865;28;20226;-69
2023/10/30 17:32:31;;;;;;;7.47;6.70;;;17.70;41.50;;;;;;10394263;28;20228;-70
2023/10/30 17:37:35;;;;;;;5.20;4.47;;;17.60;41.30;;;;;;10388936;28;20218;-75
2023/10/30 17:42:39;;;;;;;5.07;4.57;;;17.70;41.20;;;;;;10389652;28;20225;-74
2023/10/30 17:47:42;;;;;;;4.20;3.90;;;17.70;41.50;;;;;;10387630;28;20973;-74
2023/10/30 17:52:47;;;;;;;4.20;3.80;;;17.70;41.40;;;;;;10394592;28;20225;-74
2023/10/30 17:57:51;;;;;;;5.73;5.17;;;17.70;41.40;;;;;;10392927;28;20234;-74
2023/10/30 18:02:54;;;;;;;5.10;4.70;;;17.70;41.30;;;;;;10387445;28;20222;-74
2023/10/30 18:07:58;;;;;;;5.00;3.97;;;17.80;41.40;;;;;;10389814;28;20224;-74
2023/10/30 18:13:02;;;;;;;4.60;4.20;;;17.70;41.20;;;;;;10388239;28;20221;-75
2023/10/30 18:18:06;;;;;;;4.53;4.13;;;17.70;41.30;;;;;;10393944;28;20232;-70
2023/10/30 18:23:09;;;;;;;4.80;4.37;;;17.80;41.30;;;;;;10388279;28;20241;-70
2023/10/30 18:28:16;;;;;;;5.00;4.60;;;17.80;41.20;;;;;;10383538;28;20222;-70
2023/10/30 18:33:20;;;;;;;4.30;3.63;;;17.80;41.30;;;;;;10397831;28;20238;-70
2023/10/30 18:38:23;;;;;;;4.13;3.73;;;17.80;41.20;;;;;;10398348;28;20252;-69
2023/10/30 18:43:28;;;;;;;4.93;4.10;;;17.80;41.20;;;;;;10398564;28;20585;-70
2023/10/30 18:48:31;;;;;;;3.73;3.43;;;17.80;41.30;;;;;;10398392;28;20304;-70
2023/10/30 18:53:34;;;;;;;3.53;3.23;;;17.70;41.20;;;;;;10392007;28;20262;-70
2023/10/30 18:58:39;;;;;;;3.30;3.00;;;17.70;41.20;;;;;;10400555;28;20218;-69
2023/10/30 19:03:42;;;;;;;3.50;3.20;;;17.70;41.40;;;;;;10396315;28;20245;-70
2023/10/30 19:08:50;;;;;;;3.70;3.40;;;17.70;41.50;;;;;;10398819;28;20221;-69
2023/10/30 19:13:55;;;;;;;3.80;3.40;;;17.70;41.20;;;;;;10395279;28;20308;-70
2023/10/30 19:18:59;;;;;;;4.10;3.80;;;17.70;41.30;;;;;;10400445;28;20229;-70
2023/10/30 19:24:02;;;;;;;3.77;3.47;;;17.60;41.10;;;;;;10398773;28;20240;-71
2023/10/30 19:29:07;;;;;;;4.33;3.93;;;17.40;41.10;;;;;;10396092;28;20723;-71
2023/10/30 19:34:11;;;;;;;5.23;4.73;;;17.30;41.40;;;;;;10395998;28;20243;-75
2023/10/30 19:39:17;;;;;;;5.10;4.70;;;17.20;41.30;;;;;;10395332;28;20311;-74
2023/10/30 19:44:22;;;;;;;4.90;4.43;;;17.10;41.20;;;;;;10399247;28;20328;-70
2023/10/30 19:49:25;;;;;;;6.23;4.57;;;16.90;41.80;;;;;;10396040;28;20316;-74
2023/10/30 19:54:28;;;;;;;4.77;4.37;;;16.80;41.70;;;;;;10395664;28;20316;-74
2023/10/30 19:59:33;;;;;;;5.23;4.60;;;16.70;42.00;;;;;;10390705;28;20221;-74
2023/10/30 20:04:36;;;;;;;4.73;4.33;;;16.50;42.40;;;;;;10397076;28;20252;-72
2023/10/30 20:09:41;;;;;;;5.20;4.80;;;16.50;42.30;;;;;;10394010;28;20781;-71
2023/10/30 20:14:58;;;;;;;5.07;4.57;;;16.50;42.40;;;;;;10393165;28;20217;-71
2023/10/30 20:20:02;;;;;;;8.53;4.70;;;16.40;42.80;;;;;;10390377;28;20214;-72
2023/10/30 20:25:07;;;;;;;5.50;4.33;;;16.30;42.70;;;;;;10391794;28;20235;-71
2023/10/30 20:30:13;;;;;;;5.20;4.57;;;16.20;43.00;;;;;;10389166;28;20234;-74
2023/10/30 20:35:17;;;;;;;5.30;4.80;;;16.20;43.70;;;;;;10388065;28;20257;-75
2023/10/30 20:40:21;;;;;;;4.97;4.57;;;16.10;43.20;;;;;;10390607;28;20228;-71
2023/10/30 20:45:25;;;;;;;6.27;5.00;;;16.10;43.40;;;;;;10394258;28;20252;-70
2023/10/30 20:50:29;;;;;;;6.20;4.83;;;16.00;43.90;;;;;;10393939;28;20233;-71
2023/10/30 20:55:32;;;;;;;5.53;4.53;;;16.00;43.70;;;;;;10391489;28;20254;-72
2023/10/30 21:00:37;;;;;;;5.40;4.90;;;16.00;43.70;;;;;;10391621;28;20712;-71
2023/10/30 21:05:41;;;;;;;5.97;4.83;;;15.90;44.20;;;;;;10390190;28;20598;-72
2023/10/30 21:10:45;;;;;;;5.10;4.60;;;15.90;43.90;;;;;;10389258;28;20226;-72
2023/10/30 21:15:49;;;;;;;5.90;5.40;;;15.90;43.90;;;;;;10388264;28;20566;-72
2023/10/30 21:20:53;;;;;;;5.73;5.23;;;15.90;44.60;;;;;;10391804;28;20645;-72
2023/10/30 21:25:56;;;;;;;5.13;4.73;;;15.90;44.30;;;;;;10387116;28;20229;-75
2023/10/30 21:31:01;;;;;;;4.63;4.23;;;15.90;44.40;;;;;;10388573;28;20221;-75
2023/10/30 21:36:04;;;;;;;5.33;4.00;;;15.80;45.00;;;;;;10391153;28;20214;-75
2023/10/30 21:41:07;;;;;;;3.87;3.57;;;15.80;45.00;;;;;;10387114;28;20770;-74
2023/10/30 21:46:12;;;;;;;3.27;2.93;;;15.80;45.00;;;;;;10389651;28;20591;-75
2023/10/30 21:51:17;;;;;;;3.47;3.17;;;15.80;45.00;;;;;;10388030;28;20286;-75
2023/10/30 21:56:21;;;;;;;2.70;2.50;;;15.80;45.00;;;;;;10385420;28;20584;-74
2023/10/30 22:01:26;;;;;;;2.27;2.07;;;15.80;45.00;;;;;;10389675;28;20233;-75
2023/10/30 22:06:29;;;;;;;3.40;1.97;;;15.90;45.10;;;;;;10390480;28;20234;-74
2023/10/30 22:11:33;;;;;;;1.80;1.70;;;15.90;45.00;;;;;;10399105;28;20233;-75
2023/10/30 22:16:40;;;;;;;2.60;1.70;;;15.90;45.10;;;;;;10393450;28;20233;-75
2023/10/30 22:21:43;;;;;;;1.50;1.40;;;16.00;45.20;;;;;;10395897;28;20276;-75
2023/10/30 22:26:47;;;;;;;1.60;1.50;;;16.00;45.20;;;;;;10395217;28;20304;-72
2023/10/30 22:31:52;;;;;;;2.10;1.77;;;16.00;45.20;;;;;;10393896;28;20248;-72
2023/10/30 22:36:55;;;;;;;1.73;1.63;;;15.90;45.10;;;;;;10401271;28;20308;-72
2023/10/30 22:41:58;;;;;;;2.73;1.70;;;15.80;45.00;;;;;;10395682;28;20226;-72
2023/10/30 22:47:03;;;;;;;2.60;2.00;;;15.90;45.10;;;;;;10395270;28;20322;-72
2023/10/30 22:52:06;;;;;;;2.60;2.40;;;15.80;45.90;;;;;;10395149;28;20230;-72
2023/10/30 22:57:10;;;;;;;2.97;2.77;;;15.80;45.20;;;;;;10400580;28;20232;-72
2023/10/30 23:02:15;;;;;;;4.93;3.17;;;15.70;45.40;;;;;;10389667;28;20241;-72
2023/10/30 23:07:18;;;;;;;4.20;3.90;;;15.70;46.00;;;;;;10395830;28;20232;-72
2023/10/30 23:12:21;;;;;;;5.10;4.70;;;15.70;45.70;;;;;;10397953;28;20237;-72
2023/10/30 23:17:26;;;;;;;4.90;4.50;;;15.60;45.90;;;;;;10390280;28;20230;-72
2023/10/30 23:22:29;;;;;;;5.07;4.67;;;15.60;46.80;;;;;;10390766;28;20230;-73
2023/10/30 23:27:32;;;;;;;5.47;5.07;;;15.50;46.20;;;;;;10397678;28;20312;-72
2023/10/30 23:32:37;;;;;;;5.13;4.73;;;15.50;46.40;;;;;;10395189;28;20226;-72
2023/10/30 23:37:40;;;;;;;4.70;4.30;;;15.50;47.10;;;;;;10392681;28;20755;-72
2023/10/30 23:42:43;;;;;;;4.60;4.30;;;15.50;46.50;;;;;;10395716;28;20704;-72
2023/10/30 23:47:48;;;;;;;4.07;3.77;;;15.50;46.70;;;;;;10397563;28;20228;-72
2023/10/30 23:52:51;;;;;;;3.10;2.90;;;15.40;47.30;;;;;;10398504;28;20636;-72
2023/10/30 23:57:54;;;;;;;2.63;2.43;;;15.40;46.70;;;;;;10392843;28;20360;-72
